Time;durP1;ratioP1;P1;durP2;ratioP2;P2;SDS_P1;SDS_P2;PMS_P1;PMS_P2;Temp;Humidity;BMP_temperature;BMP_pressure;BME280_temperature;BME280_humidity;BME280_pressure;Samples;Min_cycle;Max_cycle;Signal;HPM_P1;HPM_P2
2022/07/01 00:01:02;;;;;;;10.30;9.30;;;15.50;99.90;;;;;;5003173;28;20040;-76
2022/07/01 00:03:28;;;;;;;13.48;12.25;;;15.50;99.90;;;;;;5022693;28;20067;-76
2022/07/01 00:05:54;;;;;;;12.32;11.15;;;15.50;99.90;;;;;;5022984;28;20029;-76
2022/07/01 00:08:24;;;;;;;10.32;9.32;;;15.50;99.90;;;;;;5006313;28;20032;-76
2022/07/01 00:10:58;;;;;;;11.73;10.63;;;15.40;99.90;;;;;;5032573;28;20024;-76
2022/07/01 00:13:27;;;;;;;11.70;10.50;;;15.50;99.90;;;;;;5022008;28;20028;-75
2022/07/01 00:15:54;;;;;;;9.95;9.05;;;15.50;99.90;;;;;;5039510;28;20033;-76
2022/07/01 00:18:22;;;;;;;8.07;7.28;;;15.40;99.90;;;;;;5038429;28;20024;-76
2022/07/01 00:20:51;;;;;;;6.85;6.25;;;15.40;99.90;;;;;;5035328;28;20029;-75
2022/07/01 00:23:18;;;;;;;8.93;8.13;;;15.40;99.90;;;;;;5037706;28;20124;-75
2022/07/01 00:25:45;;;;;;;9.13;7.95;;;15.30;99.90;;;;;;5020650;28;20044;-76
2022/07/01 00:28:14;;;;;;;8.57;7.55;;;15.20;99.90;;;;;;5040502;28;20060;-77
2022/07/01 00:30:41;;;;;;;10.15;8.52;;;15.20;99.90;;;;;;5036621;28;20017;-77
2022/07/01 00:33:07;;;;;;;8.70;7.90;;;15.20;99.90;;;;;;5024569;28;20043;-76
2022/07/01 00:35:34;;;;;;;10.88;9.82;;;15.10;99.90;;;;;;5027403;28;20480;-76
2022/07/01 00:38:00;;;;;;;11.20;10.10;;;15.10;99.90;;;;;;5042472;28;20021;-77
2022/07/01 00:40:27;;;;;;;8.43;7.68;;;15.10;99.90;;;;;;5007783;28;20048;-76
2022/07/01 00:42:57;;;;;;;12.13;10.00;;;15.10;99.90;;;;;;5011628;28;20041;-76
2022/07/01 00:45:23;;;;;;;11.65;10.55;;;15.10;99.90;;;;;;5043760;28;20021;-76
2022/07/01 00:47:50;;;;;;;10.15;9.20;;;15.20;99.90;;;;;;5027512;28;20039;-77
2022/07/01 00:50:17;;;;;;;10.65;9.57;;;15.20;99.90;;;;;;5024266;28;20032;-77
2022/07/01 00:52:47;;;;;;;12.40;11.20;;;15.20;99.90;;;;;;5026284;28;20538;-76
2022/07/01 00:55:14;;;;;;;12.68;11.48;;;15.30;99.90;;;;;;5026293;28;20041;-76
2022/07/01 00:57:43;;;;;;;13.18;11.93;;;15.30;99.90;;;;;;5043128;28;20017;-75
2022/07/01 01:00:27;;;;;;;14.13;12.05;;;15.30;99.90;;;;;;5025004;28;20024;-76
2022/07/01 01:02:53;;;;;;;15.00;13.60;;;15.40;99.90;;;;;;5041109;28;20044;-76
2022/07/01 01:05:21;;;;;;;12.40;11.20;;;15.30;99.90;;;;;;5022323;28;20025;-75
2022/07/01 01:07:50;;;;;;;13.90;12.68;;;15.30;99.90;;;;;;5043451;28;20033;-76
2022/07/01 01:10:17;;;;;;;13.55;12.15;;;15.30;99.90;;;;;;5036508;28;20029;-76
2022/07/01 01:12:44;;;;;;;15.00;13.48;;;15.40;99.90;;;;;;5011287;28;20032;-76
2022/07/01 01:15:17;;;;;;;12.23;11.07;;;15.30;99.90;;;;;;5024362;28;20044;-76
2022/07/01 01:17:43;;;;;;;14.38;12.98;;;15.30;99.90;;;;;;5027787;28;20338;-75
2022/07/01 01:20:18;;;;;;;16.77;15.27;;;15.30;99.90;;;;;;5010426;28;20503;-75
2022/07/01 01:22:46;;;;;;;13.20;11.93;;;15.40;99.90;;;;;;5021261;28;20037;-75
2022/07/01 01:25:13;;;;;;;22.42;19.33;;;15.40;99.90;;;;;;5009685;28;20052;-75
2022/07/01 01:27:40;;;;;;;21.02;18.77;;;15.40;99.90;;;;;;4994933;28;20452;-78
2022/07/01 01:30:09;;;;;;;26.52;23.23;;;15.40;99.90;;;;;;5042087;28;20900;-78
2022/07/01 01:32:36;;;;;;;19.55;17.55;;;15.40;99.90;;;;;;5043191;28;20673;-79
2022/07/01 01:35:04;;;;;;;20.85;18.65;;;15.40;99.90;;;;;;5041261;28;20029;-78
2022/07/01 01:37:30;;;;;;;24.45;21.60;;;15.40;99.90;;;;;;5042103;28;20147;-78
2022/07/01 01:39:58;;;;;;;28.27;25.23;;;15.40;99.90;;;;;;5042665;28;20040;-78
2022/07/01 01:42:24;;;;;;;28.90;23.58;;;15.30;99.90;;;;;;5043945;28;20029;-78
2022/07/01 01:44:50;;;;;;;30.58;27.25;;;15.40;99.90;;;;;;5043031;28;20392;-78
2022/07/01 01:47:17;;;;;;;22.05;19.80;;;15.40;99.90;;;;;;5025232;28;20032;-78
2022/07/01 01:49:43;;;;;;;26.65;23.23;;;15.40;99.90;;;;;;5041880;28;20039;-78
2022/07/01 01:52:09;;;;;;;28.60;25.48;;;15.40;99.90;;;;;;5026278;28;20036;-79
2022/07/01 01:54:36;;;;;;;24.48;21.88;;;15.40;99.90;;;;;;5043499;28;20044;-79
2022/07/01 01:57:04;;;;;;;30.88;27.33;;;15.40;99.90;;;;;;5045525;28;20021;-79
2022/07/01 01:59:31;;;;;;;33.42;28.70;;;15.40;99.90;;;;;;5043658;28;20033;-79
2022/07/01 02:01:57;;;;;;;32.53;28.42;;;15.40;99.90;;;;;;5043965;28;20469;-78
2022/07/01 02:04:23;;;;;;;27.63;24.80;;;15.40;99.90;;;;;;5047792;28;20041;-79
2022/07/01 02:06:51;;;;;;;28.98;25.95;;;15.30;99.90;;;;;;5046441;28;20040;-79
2022/07/01 02:09:18;;;;;;;33.03;29.52;;;15.20;99.90;;;;;;5022919;28;20035;-79
2022/07/01 02:11:44;;;;;;;31.52;28.20;;;15.20;99.90;;;;;;5025045;28;20025;-79
2022/07/01 02:14:11;;;;;;;27.45;24.52;;;15.10;99.90;;;;;;5042627;28;20036;-79
2022/07/01 02:16:37;;;;;;;27.58;24.70;;;15.10;99.90;;;;;;5041889;28;20025;-78
2022/07/01 02:19:04;;;;;;;32.88;29.40;;;15.10;99.90;;;;;;5023029;28;20033;-79
2022/07/01 02:21:30;;;;;;;32.28;28.83;;;15.10;99.90;;;;;;5022984;28;20036;-79
2022/07/01 02:23:56;;;;;;;32.08;28.65;;;15.10;99.90;;;;;;5041560;28;20033;-78
2022/07/01 02:26:23;;;;;;;30.80;27.60;;;15.10;99.90;;;;;;5043805;28;20056;-78
2022/07/01 02:28:49;;;;;;;32.47;28.75;;;15.10;99.90;;;;;;5040833;28;20373;-79
2022/07/01 02:31:16;;;;;;;34.17;29.35;;;15.10;99.90;;;;;;5023522;28;20423;-79
2022/07/01 02:33:42;;;;;;;30.90;27.58;;;15.10;99.90;;;;;;5039881;28;20484;-78
2022/07/01 02:36:08;;;;;;;33.35;29.45;;;15.10;99.90;;;;;;5027118;28;20041;-79
2022/07/01 02:38:35;;;;;;;32.65;29.13;;;15.10;99.90;;;;;;5025161;28;20036;-78
2022/07/01 02:41:01;;;;;;;26.27;23.30;;;15.10;99.90;;;;;;5039566;28;20046;-79
2022/07/01 02:43:28;;;;;;;32.88;29.48;;;15.10;99.90;;;;;;5042714;28;20029;-79
2022/07/01 02:45:55;;;;;;;31.13;27.75;;;15.10;99.90;;;;;;5040505;28;20495;-79
2022/07/01 02:48:22;;;;;;;31.33;28.08;;;15.10;99.90;;;;;;5053217;28;20028;-78
2022/07/01 02:50:48;;;;;;;31.88;28.10;;;15.00;99.90;;;;;;5039658;28;20032;-78
2022/07/01 02:53:14;;;;;;;22.15;20.05;;;15.00;99.90;;;;;;5039409;28;20467;-79
2022/07/01 02:55:41;;;;;;;28.88;25.90;;;15.00;99.90;;;;;;5024856;28;20388;-78
2022/07/01 02:58:07;;;;;;;33.75;30.15;;;15.00;99.90;;;;;;5042000;28;20033;-79
2022/07/01 03:00:33;;;;;;;28.35;25.38;;;14.90;99.90;;;;;;5040393;28;20021;-79
2022/07/01 03:03:00;;;;;;;24.67;21.92;;;14.80;99.90;;;;;;5021954;28;20021;-79
2022/07/01 03:05:26;;;;;;;27.95;24.92;;;14.80;99.90;;;;;;5041172;28;20483;-79
2022/07/01 03:07:53;;;;;;;24.02;21.40;;;14.80;99.90;;;;;;5026788;28;20032;-78
2022/07/01 03:10:19;;;;;;;29.50;24.83;;;14.70;99.90;;;;;;5038299;28;20032;-78
2022/07/01 03:12:45;;;;;;;28.15;25.15;;;14.70;99.90;;;;;;5022283;28;20491;-79
2022/07/01 03:15:13;;;;;;;29.83;24.75;;;14.60;99.90;;;;;;5041062;28;20025;-79
2022/07/01 03:17:42;;;;;;;21.10;19.00;;;14.60;99.90;;;;;;5030399;28;20040;-79
2022/07/01 03:20:15;;;;;;;25.48;21.50;;;14.60;99.90;;;;;;5009839;28;20033;-78
2022/07/01 03:22:43;;;;;;;27.35;24.15;;;14.60;99.90;;;;;;5040199;28;20017;-79
2022/07/01 03:25:09;;;;;;;24.42;21.73;;;14.60;99.90;;;;;;5037939;28;20060;-79
2022/07/01 03:27:36;;;;;;;23.52;21.13;;;14.60;99.90;;;;;;5024646;28;20033;-79
2022/07/01 03:30:05;;;;;;;24.83;22.10;;;14.70;99.90;;;;;;5036683;28;20037;-79
2022/07/01 03:32:33;;;;;;;23.08;20.55;;;14.70;99.90;;;;;;5038705;28;20036;-79
2022/07/01 03:35:00;;;;;;;27.90;24.73;;;14.70;99.90;;;;;;5039667;28;20487;-79
2022/07/01 03:37:26;;;;;;;28.70;25.25;;;14.80;99.90;;;;;;5040285;28;20028;-79
2022/07/01 03:39:53;;;;;;;23.60;21.20;;;14.80;99.90;;;;;;5038541;28;20045;-79
2022/07/01 03:42:19;;;;;;;28.70;25.40;;;14.70;99.90;;;;;;5039487;28;20041;-78
2022/07/01 03:44:46;;;;;;;31.75;26.27;;;14.80;99.90;;;;;;5024037;28;20412;-79
2022/07/01 03:47:13;;;;;;;35.28;29.65;;;14.80;99.90;;;;;;5038419;28;20040;-79
2022/07/01 03:49:39;;;;;;;30.05;25.65;;;14.70;99.90;;;;;;5022226;28;20033;-79
2022/07/01 03:52:06;;;;;;;25.50;22.77;;;14.70;99.90;;;;;;5038325;28;20021;-79
2022/07/01 03:54:33;;;;;;;25.00;22.40;;;14.60;99.90;;;;;;5036908;28;20029;-79
2022/07/01 03:57:01;;;;;;;28.83;25.10;;;14.60;99.90;;;;;;5039173;28;20029;-79
2022/07/01 03:59:31;;;;;;;38.17;33.92;;;14.50;99.90;;;;;;5033867;28;20024;-79
2022/07/01 04:01:59;;;;;;;34.40;30.42;;;14.50;99.90;;;;;;5038717;28;20051;-79
2022/07/01 04:04:26;;;;;;;40.00;32.28;;;14.50;99.90;;;;;;5026096;28;20368;-79
2022/07/01 04:06:53;;;;;;;36.17;28.98;;;14.60;99.90;;;;;;5042975;28;20465;-79
2022/07/01 04:09:20;;;;;;;29.40;26.27;;;14.60;99.90;;;;;;5048910;28;20491;-79
2022/07/01 04:11:48;;;;;;;30.50;26.20;;;14.60;99.90;;;;;;5005332;28;20040;-79
2022/07/01 04:14:15;;;;;;;28.02;25.10;;;14.70;99.90;;;;;;5039979;28;20096;-79
2022/07/01 04:16:42;;;;;;;25.30;22.52;;;14.70;99.90;;;;;;5040224;28;20037;-75
2022/07/01 04:19:09;;;;;;;26.08;23.08;;;14.80;99.90;;;;;;5038264;28;20029;-75
2022/07/01 04:24:24;;;;;;;29.38;25.10;;;14.90;99.90;;;;;;5037730;28;20040;-75
2022/07/01 04:26:51;;;;;;;25.00;22.38;;;14.90;99.90;;;;;;5037960;28;20028;-75
2022/07/01 04:29:18;;;;;;;28.20;24.73;;;14.90;99.90;;;;;;5005476;28;20041;-75
2022/07/01 04:31:45;;;;;;;27.67;24.25;;;14.90;99.90;;;;;;5039080;28;20021;-81
2022/07/01 04:34:12;;;;;;;31.92;25.25;;;14.90;99.90;;;;;;5038281;28;20049;-78
2022/07/01 04:36:39;;;;;;;31.75;24.40;;;14.90;99.90;;;;;;5039306;28;20040;-79
2022/07/01 04:39:05;;;;;;;27.45;24.35;;;14.90;99.90;;;;;;5023754;28;20040;-78
2022/07/01 04:44:18;;;;;;;28.98;23.75;;;15.00;99.90;;;;;;5038552;28;20030;-78
2022/07/01 04:46:45;;;;;;;36.00;29.67;;;15.00;99.90;;;;;;5038237;28;20460;-78
2022/07/01 04:49:11;;;;;;;31.65;25.15;;;15.10;99.90;;;;;;5036820;28;20507;-79
2022/07/01 04:51:38;;;;;;;32.60;25.08;;;15.10;99.90;;;;;;5041941;28;20579;-79
2022/07/01 04:54:08;;;;;;;31.63;23.67;;;15.10;99.90;;;;;;5042193;28;20062;-77
2022/07/01 04:56:36;;;;;;;29.52;23.88;;;15.10;99.90;;;;;;5040358;28;20052;-77
2022/07/01 04:59:03;;;;;;;29.88;25.05;;;15.10;99.90;;;;;;5040409;28;20025;-77
2022/07/01 05:01:29;;;;;;;33.10;25.27;;;15.20;99.90;;;;;;5021602;28;20408;-77
2022/07/01 05:03:56;;;;;;;30.13;22.75;;;15.10;99.90;;;;;;5040417;28;20480;-76
2022/07/01 05:06:23;;;;;;;33.63;26.10;;;15.10;99.90;;;;;;5038094;28;20061;-77
2022/07/01 05:08:50;;;;;;;30.48;23.30;;;15.10;99.90;;;;;;5039241;28;20029;-77
2022/07/01 05:11:16;;;;;;;36.92;26.60;;;15.10;99.90;;;;;;5040927;28;20036;-78
2022/07/01 05:13:43;;;;;;;30.35;23.63;;;15.00;99.90;;;;;;4995293;28;20048;-77
2022/07/01 05:16:09;;;;;;;30.83;24.00;;;15.00;99.90;;;;;;5031950;28;20057;-77
2022/07/01 05:24:08;;;;;;;28.63;20.95;;;15.10;99.90;;;;;;5045385;28;20025;-78
2022/07/01 05:26:35;;;;;;;28.17;21.33;;;15.10;99.90;;;;;;5045014;28;20040;-77
2022/07/01 05:29:01;;;;;;;23.63;17.27;;;15.10;99.90;;;;;;5044203;28;20041;-77
2022/07/01 05:31:27;;;;;;;20.08;16.48;;;15.20;99.90;;;;;;5012958;28;20036;-78
2022/07/01 05:33:54;;;;;;;22.33;18.13;;;15.20;99.90;;;;;;5044626;28;20055;-78
2022/07/01 05:36:20;;;;;;;20.00;17.08;;;15.20;99.90;;;;;;5041249;28;20043;-78
2022/07/01 05:38:47;;;;;;;21.20;17.98;;;15.20;99.90;;;;;;5039411;28;20452;-78
2022/07/01 05:41:13;;;;;;;28.35;21.02;;;15.20;99.90;;;;;;5038919;28;20381;-78
2022/07/01 05:43:41;;;;;;;24.25;19.30;;;15.30;99.90;;;;;;5041088;28;20320;-78
2022/07/01 05:46:08;;;;;;;27.38;21.13;;;15.30;99.90;;;;;;5049398;28;20036;-78
2022/07/01 05:48:34;;;;;;;24.15;19.10;;;15.40;99.90;;;;;;5047747;28;20045;-78
2022/07/01 05:51:00;;;;;;;23.75;19.55;;;15.40;99.90;;;;;;5023683;28;20484;-78
2022/07/01 05:53:27;;;;;;;21.48;18.48;;;15.50;99.90;;;;;;5043510;28;20382;-78
2022/07/01 05:55:53;;;;;;;24.17;18.00;;;15.50;99.90;;;;;;5042405;28;20472;-78
2022/07/01 05:58:19;;;;;;;24.83;20.00;;;15.60;99.90;;;;;;5043549;28;20036;-78
2022/07/01 06:00:46;;;;;;;26.58;20.58;;;15.60;99.90;;;;;;5042758;28;20021;-78
2022/07/01 06:03:14;;;;;;;25.23;19.38;;;15.60;99.90;;;;;;5042611;28;20037;-78
2022/07/01 06:05:41;;;;;;;30.73;23.33;;;15.70;99.90;;;;;;5054398;28;20021;-78
2022/07/01 06:08:08;;;;;;;26.92;21.05;;;15.70;99.90;;;;;;5038308;28;20372;-78
2022/07/01 06:10:35;;;;;;;25.60;18.08;;;15.70;99.90;;;;;;5038481;28;20404;-78
2022/07/01 06:13:02;;;;;;;28.83;23.33;;;15.80;99.90;;;;;;5041747;28;20044;-78
2022/07/01 06:15:29;;;;;;;31.55;23.23;;;15.90;99.90;;;;;;5024752;28;20041;-78
2022/07/01 06:17:56;;;;;;;26.88;21.48;;;15.90;99.90;;;;;;5041258;28;20032;-78
2022/07/01 06:20:23;;;;;;;27.25;21.55;;;15.90;99.90;;;;;;5037387;28;20017;-78
2022/07/01 06:22:49;;;;;;;25.55;19.90;;;15.90;99.90;;;;;;5040974;28;20045;-78
2022/07/01 06:25:15;;;;;;;24.05;18.85;;;16.00;99.90;;;;;;5040186;28;20021;-78
2022/07/01 06:27:43;;;;;;;27.30;20.35;;;16.00;99.90;;;;;;5043762;28;20025;-78
2022/07/01 06:30:11;;;;;;;22.92;18.90;;;16.00;99.90;;;;;;5036748;28;20459;-78
2022/07/01 06:32:38;;;;;;;22.88;18.75;;;16.10;99.90;;;;;;5041250;28;20047;-78
2022/07/01 06:35:05;;;;;;;26.20;20.95;;;16.10;99.90;;;;;;5041015;28;20021;-78
2022/07/01 06:37:35;;;;;;;22.05;18.52;;;16.20;99.90;;;;;;5043104;28;20026;-78
2022/07/01 06:40:04;;;;;;;24.30;19.58;;;16.20;99.90;;;;;;5021906;28;20060;-79
2022/07/01 06:42:30;;;;;;;22.73;17.75;;;16.30;99.90;;;;;;5040374;28;20021;-77
2022/07/01 06:44:57;;;;;;;23.25;17.35;;;16.30;99.90;;;;;;5043670;28;20021;-78
2022/07/01 06:47:24;;;;;;;24.33;19.20;;;16.40;99.90;;;;;;5043035;28;20457;-78
2022/07/01 06:49:50;;;;;;;26.00;19.48;;;16.40;99.90;;;;;;5036404;28;20017;-77
2022/07/01 06:52:17;;;;;;;23.67;17.83;;;16.40;99.90;;;;;;5024655;28;20020;-77
2022/07/01 06:54:43;;;;;;;23.80;19.52;;;16.50;99.90;;;;;;5042789;28;20036;-77
2022/07/01 06:57:09;;;;;;;25.02;18.35;;;16.60;99.90;;;;;;5041350;28;20472;-77
2022/07/01 06:59:36;;;;;;;18.00;14.05;;;16.70;99.90;;;;;;5037436;28;20957;-77
2022/07/01 07:02:02;;;;;;;19.60;15.60;;;16.70;99.90;;;;;;5022121;28;20052;-78
2022/07/01 07:04:29;;;;;;;24.67;17.95;;;16.80;99.90;;;;;;5039215;28;20029;-77
2022/07/01 07:06:55;;;;;;;27.35;18.13;;;16.90;99.90;;;;;;5041312;28;20029;-78
2022/07/01 07:09:21;;;;;;;27.98;18.85;;;16.80;99.90;;;;;;5040155;28;21320;-78
2022/07/01 07:11:48;;;;;;;25.83;18.95;;;16.70;99.90;;;;;;5041476;28;20420;-78
2022/07/01 07:14:15;;;;;;;24.48;18.10;;;16.60;99.90;;;;;;5041544;28;20017;-78
2022/07/01 07:16:41;;;;;;;22.67;17.25;;;16.70;99.90;;;;;;5042154;28;20383;-78
2022/07/01 07:19:09;;;;;;;23.45;17.52;;;16.80;99.90;;;;;;5038842;28;20717;-78
2022/07/01 07:21:36;;;;;;;23.10;17.83;;;17.30;99.90;;;;;;5039681;28;20043;-78
2022/07/01 07:24:02;;;;;;;22.88;18.10;;;17.60;99.90;;;;;;5039207;28;20021;-76
2022/07/01 07:26:29;;;;;;;21.23;17.33;;;17.80;99.90;;;;;;5041283;28;20021;-77
2022/07/01 07:28:55;;;;;;;24.05;16.70;;;17.90;99.90;;;;;;5038753;28;20037;-77
2022/07/01 07:31:21;;;;;;;24.70;18.45;;;18.10;99.90;;;;;;5020790;28;23924;-76
2022/07/01 07:33:48;;;;;;;25.63;17.40;;;18.20;99.90;;;;;;5040467;28;20530;-77
2022/07/01 07:36:14;;;;;;;20.88;16.45;;;18.30;99.90;;;;;;5009497;28;20051;-75
2022/07/01 07:38:41;;;;;;;20.02;15.75;;;18.60;99.90;;;;;;5039144;28;20048;-76
2022/07/01 07:41:07;;;;;;;19.15;15.00;;;18.90;99.90;;;;;;5037695;28;20392;-75
2022/07/01 07:43:33;;;;;;;18.13;15.50;;;19.10;99.90;;;;;;5040260;28;20025;-76
2022/07/01 07:46:02;;;;;;;17.30;15.00;;;19.20;99.90;;;;;;5040073;28;20025;-75
2022/07/01 07:48:28;;;;;;;18.30;14.65;;;19.20;99.90;;;;;;5038045;28;20036;-75
2022/07/01 07:50:54;;;;;;;14.93;12.73;;;19.30;99.90;;;;;;5036455;28;20039;-77
2022/07/01 07:53:21;;;;;;;17.08;12.40;;;19.30;99.90;;;;;;5037952;28;20044;-77
2022/07/01 07:55:47;;;;;;;20.00;15.07;;;19.30;99.90;;;;;;5021617;28;20056;-75
2022/07/01 07:58:14;;;;;;;17.02;13.77;;;19.30;99.90;;;;;;5037935;28;20280;-75
2022/07/01 08:00:40;;;;;;;19.17;14.52;;;19.20;99.90;;;;;;5036548;28;20032;-74
2022/07/01 08:03:07;;;;;;;14.63;12.70;;;19.10;99.90;;;;;;5037329;28;20013;-74
2022/07/01 08:05:33;;;;;;;18.90;12.68;;;19.10;99.90;;;;;;5040838;28;20480;-75
2022/07/01 08:08:00;;;;;;;13.18;11.82;;;19.10;99.90;;;;;;5033959;28;20519;-74
2022/07/01 08:10:26;;;;;;;15.93;12.10;;;19.00;99.90;;;;;;5037839;28;20036;-75
2022/07/01 08:12:52;;;;;;;13.80;11.05;;;19.10;99.90;;;;;;5038405;28;20404;-74
2022/07/01 08:15:19;;;;;;;13.32;11.80;;;19.40;99.90;;;;;;5038178;28;20025;-74
2022/07/01 08:17:45;;;;;;;14.57;11.32;;;19.60;99.90;;;;;;5038592;28;20365;-75
2022/07/01 08:20:12;;;;;;;12.27;10.60;;;19.80;99.90;;;;;;5036973;28;20021;-74
2022/07/01 08:22:38;;;;;;;10.88;8.35;;;20.00;99.90;;;;;;5022588;28;20032;-74
2022/07/01 08:25:05;;;;;;;14.00;9.80;;;20.30;99.90;;;;;;5022531;28;20074;-74
2022/07/01 08:27:31;;;;;;;11.95;8.95;;;20.50;99.90;;;;;;5004574;28;20016;-74
2022/07/01 08:29:57;;;;;;;10.15;7.68;;;20.70;99.90;;;;;;5003325;28;20024;-74
2022/07/01 08:32:26;;;;;;;8.57;5.90;;;20.90;99.90;;;;;;5006511;28;20033;-75
2022/07/01 08:34:53;;;;;;;11.10;8.00;;;21.00;99.90;;;;;;5038598;28;20380;-78
2022/07/01 08:37:19;;;;;;;11.77;8.35;;;21.10;99.90;;;;;;5023016;28;20770;-78
2022/07/01 08:39:46;;;;;;;8.93;6.15;;;21.10;99.90;;;;;;5033725;28;20036;-78
2022/07/01 08:42:12;;;;;;;7.68;4.68;;;21.10;99.90;;;;;;5038823;28;20369;-78
2022/07/01 08:44:39;;;;;;;6.50;3.90;;;21.20;99.90;;;;;;5041629;28;20029;-78
2022/07/01 08:47:10;;;;;;;7.20;3.25;;;21.30;99.90;;;;;;5041895;28;20479;-78
2022/07/01 08:49:37;;;;;;;3.78;1.95;;;21.50;99.90;;;;;;5039604;28;20037;-78
2022/07/01 08:52:03;;;;;;;7.35;3.08;;;21.60;99.90;;;;;;5042470;28;20051;-78
2022/07/01 08:54:30;;;;;;;3.28;1.80;;;21.70;99.90;;;;;;5043492;28;20029;-78
2022/07/01 08:56:56;;;;;;;6.97;3.35;;;21.70;99.90;;;;;;5042002;28;20043;-78
2022/07/01 08:59:25;;;;;;;6.53;3.60;;;21.50;99.90;;;;;;5038524;28;20033;-78
2022/07/01 09:02:00;;;;;;;6.78;2.67;;;21.40;99.90;;;;;;5042381;28;20021;-78
2022/07/01 09:04:27;;;;;;;4.95;2.20;;;21.40;99.90;;;;;;5043143;28;20036;-78
2022/07/01 09:07:02;;;;;;;4.45;1.15;;;21.40;99.90;;;;;;5028336;28;20028;-78
2022/07/01 09:09:28;;;;;;;6.18;1.60;;;21.50;99.90;;;;;;5038951;28;20506;-78
2022/07/01 09:11:55;;;;;;;6.20;2.13;;;21.70;99.90;;;;;;5025130;28;20032;-78
2022/07/01 09:14:24;;;;;;;3.00;1.05;;;21.90;99.90;;;;;;5041433;28;20021;-78
2022/07/01 09:16:57;;;;;;;3.38;1.23;;;22.20;99.90;;;;;;5043247;28;20572;-77
2022/07/01 09:19:25;;;;;;;3.17;1.10;;;22.30;99.90;;;;;;5037773;28;20033;-78
2022/07/01 09:21:56;;;;;;;3.25;1.00;;;22.10;99.90;;;;;;5025932;28;20056;-78
2022/07/01 09:24:32;;;;;;;2.60;0.82;;;22.00;99.90;;;;;;5042730;28;20033;-78
2022/07/01 09:27:13;;;;;;;3.75;1.00;;;22.00;99.90;;;;;;5042810;28;20456;-76
2022/07/01 09:29:42;;;;;;;3.45;0.70;;;21.90;99.90;;;;;;5039170;28;20468;-76
2022/07/01 09:32:11;;;;;;;5.95;0.90;;;21.90;99.90;;;;;;5040171;28;20021;-76
2022/07/01 09:34:45;;;;;;;2.75;0.80;;;21.90;99.90;;;;;;5039713;28;20017;-76
2022/07/01 09:37:20;;;;;;;2.83;0.93;;;22.10;99.90;;;;;;5041396;28;20044;-77
2022/07/01 09:39:54;;;;;;;2.20;0.50;;;22.20;99.90;;;;;;5040818;28;20029;-77
2022/07/01 09:42:23;;;;;;;1.50;0.40;;;22.30;99.90;;;;;;5041750;28;20028;-76
2022/07/01 09:44:55;;;;;;;2.72;0.43;;;22.30;99.90;;;;;;5042020;28;20041;-80
2022/07/01 09:47:26;;;;;;;3.22;0.50;;;22.50;99.90;;;;;;5059171;28;20036;-80
2022/07/01 09:49:54;;;;;;;3.00;0.50;;;22.80;99.90;;;;;;5042956;28;20040;-80
2022/07/01 09:52:21;;;;;;;2.80;0.90;;;22.90;99.90;;;;;;5043322;28;20124;-80
2022/07/01 09:54:49;;;;;;;3.13;0.68;;;23.00;99.90;;;;;;5049267;28;20385;-81
2022/07/01 09:57:17;;;;;;;3.25;0.80;;;23.20;99.30;;;;;;5028359;28;20033;-81
2022/07/01 09:59:43;;;;;;;2.42;0.40;;;23.40;98.90;;;;;;5040673;28;20062;-81
2022/07/01 10:02:11;;;;;;;2.65;0.60;;;23.70;98.50;;;;;;5044269;28;20021;-81
2022/07/01 10:04:42;;;;;;;3.00;0.60;;;23.90;97.70;;;;;;5027860;28;20515;-81
2022/07/01 10:07:28;;;;;;;3.17;0.60;;;24.10;96.40;;;;;;5046911;28;20040;-82
2022/07/01 10:10:32;;;;;;;2.15;0.50;;;24.20;96.30;;;;;;5040526;28;20032;-82
2022/07/01 10:13:01;;;;;;;2.47;0.43;;;24.30;95.20;;;;;;5040571;28;20065;-81
2022/07/01 10:15:29;;;;;;;2.90;0.70;;;24.10;94.80;;;;;;5042024;28;20024;-81
2022/07/01 10:17:55;;;;;;;2.15;0.40;;;23.90;94.30;;;;;;5025854;28;20028;-81
2022/07/01 10:20:27;;;;;;;2.15;0.50;;;23.70;94.20;;;;;;5021460;28;20405;-82
2022/07/01 10:23:03;;;;;;;4.57;0.50;;;23.50;93.90;;;;;;5039742;28;20032;-81
2022/07/01 10:25:34;;;;;;;3.13;0.60;;;23.50;94.40;;;;;;5052736;28;20124;-82
2022/07/01 10:28:21;;;;;;;3.30;0.50;;;23.50;94.10;;;;;;5043155;28;20036;-82
2022/07/01 10:30:52;;;;;;;2.28;0.75;;;23.40;94.30;;;;;;5021727;28;20028;-81
2022/07/01 10:33:46;;;;;;;1.55;0.40;;;23.50;94.40;;;;;;5041241;28;20349;-81
2022/07/01 10:36:18;;;;;;;1.65;0.50;;;23.50;94.20;;;;;;5041702;28;20029;-81
2022/07/01 10:39:03;;;;;;;1.92;0.50;;;23.40;93.80;;;;;;5041414;28;20013;-81
2022/07/01 10:41:31;;;;;;;3.38;0.50;;;23.30;93.80;;;;;;5037918;28;20048;-81
2022/07/01 10:44:01;;;;;;;1.40;0.40;;;23.40;93.80;;;;;;5039508;28;20041;-80
2022/07/01 10:47:12;;;;;;;2.08;0.65;;;23.50;93.90;;;;;;5042616;28;20052;-80
2022/07/01 10:49:52;;;;;;;3.40;1.10;;;23.50;93.30;;;;;;5034491;28;20072;-81
2022/07/01 10:52:19;;;;;;;1.92;0.50;;;23.40;93.40;;;;;;5041065;28;20103;-81
2022/07/01 10:54:48;;;;;;;4.40;0.45;;;23.60;93.50;;;;;;5026122;28;20024;-81
2022/07/01 10:57:20;;;;;;;2.50;0.50;;;24.00;93.00;;;;;;5042905;28;20028;-82
2022/07/01 10:59:48;;;;;;;;;;;24.10;91.60;;;;;;5039254;28;20381;-82
2022/07/01 11:02:35;;;;;;;2.00;0.40;;;24.00;91.40;;;;;;5041364;28;19916;-80
2022/07/01 11:05:13;;;;;;;2.22;0.30;;;23.90;91.10;;;;;;5039377;28;20028;-80
2022/07/01 11:07:44;;;;;;;1.80;0.32;;;23.80;90.80;;;;;;5040926;28;20013;-77
2022/07/01 11:10:12;;;;;;;1.83;0.70;;;24.30;90.90;;;;;;5038078;28;20040;-78
2022/07/01 11:12:39;;;;;;;1.90;0.47;;;24.60;88.70;;;;;;5040909;28;20423;-78
2022/07/01 11:15:06;;;;;;;1.25;0.30;;;24.80;88.50;;;;;;5041130;28;20021;-78
2022/07/01 11:17:42;;;;;;;2.47;0.30;;;25.40;88.50;;;;;;5040938;28;20619;-78
2022/07/01 11:20:10;;;;;;;2.35;0.30;;;26.30;86.60;;;;;;5037731;28;20048;-78
2022/07/01 11:22:36;;;;;;;1.88;0.40;;;26.60;84.80;;;;;;5039666;28;20021;-79
2022/07/01 11:25:10;;;;;;;1.15;0.40;;;26.80;82.00;;;;;;5041394;28;20025;-78
2022/07/01 11:27:38;;;;;;;1.75;0.47;;;27.10;80.50;;;;;;5040413;28;20476;-79
2022/07/01 11:30:12;;;;;;;2.10;0.60;;;27.50;80.60;;;;;;5023257;28;20464;-79
2022/07/01 11:32:44;;;;;;;1.90;0.40;;;28.10;78.90;;;;;;5038907;28;20028;-79
2022/07/01 11:41:07;;;;;;;2.88;0.50;;;27.50;75.90;;;;;;5036262;28;20047;-81
2022/07/01 11:43:37;;;;;;;2.63;0.60;;;27.50;75.30;;;;;;5039664;28;20025;-81
2022/07/01 11:46:05;;;;;;;1.83;0.40;;;27.30;74.50;;;;;;5040069;28;20388;-81
2022/07/01 11:48:37;;;;;;;1.75;0.47;;;26.70;73.80;;;;;;5040683;28;20017;-81
2022/07/01 11:51:12;;;;;;;2.13;0.40;;;26.70;74.10;;;;;;5033338;28;20063;-81
2022/07/01 11:53:40;;;;;;;1.85;0.30;;;27.20;73.50;;;;;;5042588;28;20017;-81
2022/07/01 11:56:07;;;;;;;3.50;0.50;;;27.80;71.50;;;;;;5040120;28;20380;-81
2022/07/01 11:59:01;;;;;;;2.45;0.45;;;28.40;71.10;;;;;;5039444;28;20032;-81
2022/07/01 12:01:33;;;;;;;2.15;0.45;;;28.70;68.90;;;;;;5036237;28;20041;-81
2022/07/01 12:04:02;;;;;;;2.20;0.50;;;28.40;68.20;;;;;;5040776;28;20027;-81
2022/07/01 12:06:29;;;;;;;3.47;0.50;;;28.20;68.20;;;;;;5040782;28;20040;-81
2022/07/01 12:08:56;;;;;;;2.90;0.40;;;28.00;68.80;;;;;;5037705;28;20033;-81
2022/07/01 12:11:25;;;;;;;2.38;0.30;;;28.30;68.70;;;;;;5039055;28;20060;-81
2022/07/01 12:13:52;;;;;;;2.00;0.43;;;28.90;66.00;;;;;;5041373;28;20036;-81
2022/07/01 12:16:19;;;;;;;2.15;0.40;;;29.40;64.70;;;;;;5039004;28;20148;-81
2022/07/01 12:18:56;;;;;;;1.42;0.40;;;29.90;64.00;;;;;;5039245;28;20033;-81
2022/07/01 12:21:23;;;;;;;3.05;0.65;;;30.00;62.80;;;;;;5036424;28;20013;-81
2022/07/01 12:24:13;;;;;;;2.22;0.30;;;29.70;62.30;;;;;;5011261;28;20029;-81
2022/07/01 12:26:50;;;;;;;2.35;0.70;;;30.00;62.00;;;;;;5045897;28;20476;-81
2022/07/01 12:29:18;;;;;;;2.65;0.50;;;30.50;61.20;;;;;;5043194;28;20534;-81
2022/07/01 12:31:58;;;;;;;4.20;0.40;;;30.90;59.00;;;;;;5043496;28;20029;-81
2022/07/01 12:34:39;;;;;;;2.47;0.38;;;31.20;58.50;;;;;;5043561;28;20029;-81
2022/07/01 12:37:13;;;;;;;1.47;0.30;;;31.40;57.10;;;;;;5042828;28;20048;-82
2022/07/01 12:39:47;;;;;;;1.48;0.50;;;31.80;57.10;;;;;;5043581;28;20039;-82
2022/07/01 12:42:31;;;;;;;1.25;0.30;;;32.10;56.30;;;;;;5037934;28;20510;-81
2022/07/01 12:45:00;;;;;;;1.20;0.43;;;32.60;56.00;;;;;;5045403;28;20040;-82
2022/07/01 12:47:32;;;;;;;2.63;0.40;;;33.10;54.10;;;;;;5043717;28;20396;-82
2022/07/01 12:50:21;;;;;;;3.28;0.40;;;33.40;53.50;;;;;;5041303;28;20037;-82
2022/07/01 12:53:05;;;;;;;2.60;0.40;;;33.80;51.50;;;;;;5043900;28;20036;-82
2022/07/01 12:55:43;;;;;;;2.70;0.30;;;34.20;50.40;;;;;;5044615;28;20021;-82
2022/07/01 12:58:27;;;;;;;1.40;0.40;;;34.40;49.90;;;;;;5044110;28;20041;-81
2022/07/01 13:01:00;;;;;;;1.65;0.30;;;34.70;49.20;;;;;;5039950;28;20045;-81